Holiday Island, Arkansas
Current Conditions -  °F | °C
As of 7:21 AM on Sunday 23 Nov 2014 (Local Time) from KROG Reporting Station
Overcast Overcast  
Wind Chill: 57°   Ceiling: 1800
Heat Index: 57°   Visibility: 10mi
Dew Point: 54°   Wind: 13mph
Humidity: 88%   Direction: 170°S
Pressure: 29.59"   Gusts: NA
Location:  36.4778°N, 93.7346°W
Report Text: KROG 231321Z AUTO 17011KT 10SM SCT012 OVC018 14/12 A2959 RMK AO2 TSNO
Loading
Personal Weather Stations






























Interactive Weather Map New forecast layout! Learn more

10-Day Weather Forecast

Advertisements
Track Severe Weather on mobile